sensor_id;sensor_type;location;lat;lon;timestamp;P1;durP1;ratioP1;P2;durP2;ratioP2
32347;SDS011;18821;44.800;10.326;2023-08-21T00:00:10;9.85;;;6.70;;
32347;SDS011;18821;44.800;10.326;2023-08-21T00:02:38;11.23;;;6.82;;
32347;SDS011;18821;44.800;10.326;2023-08-21T00:05:05;11.93;;;7.13;;
32347;SDS011;18821;44.800;10.326;2023-08-21T00:07:31;7.85;;;6.30;;
32347;SDS011;18821;44.800;10.326;2023-08-21T00:09:58;10.65;;;7.20;;
32347;SDS011;18821;44.800;10.326;2023-08-21T00:12:23;8.35;;;6.93;;
32347;SDS011;18821;44.800;10.326;2023-08-21T00:14:49;10.82;;;7.38;;
32347;SDS011;18821;44.800;10.326;2023-08-21T00:17:15;10.02;;;7.10;;
32347;SDS011;18821;44.800;10.326;2023-08-21T00:19:42;8.38;;;6.68;;
32347;SDS011;18821;44.800;10.326;2023-08-21T00:22:08;9.45;;;7.50;;
32347;SDS011;18821;44.800;10.326;2023-08-21T00:24:34;13.20;;;8.43;;
32347;SDS011;18821;44.800;10.326;2023-08-21T00:26:59;12.00;;;7.95;;
32347;SDS011;18821;44.800;10.326;2023-08-21T00:29:27;13.40;;;8.23;;
32347;SDS011;18821;44.800;10.326;2023-08-21T00:31:54;10.77;;;7.65;;
32347;SDS011;18821;44.800;10.326;2023-08-21T00:34:21;9.02;;;7.47;;
32347;SDS011;18821;44.800;10.326;2023-08-21T00:36:47;9.82;;;8.07;;
32347;SDS011;18821;44.800;10.326;2023-08-21T00:39:14;9.88;;;7.53;;
32347;SDS011;18821;44.800;10.326;2023-08-21T00:41:40;10.25;;;7.47;;
32347;SDS011;18821;44.800;10.326;2023-08-21T00:44:07;10.23;;;7.95;;
32347;SDS011;18821;44.800;10.326;2023-08-21T00:46:33;13.70;;;9.20;;
32347;SDS011;18821;44.800;10.326;2023-08-21T00:49:00;14.07;;;8.57;;
32347;SDS011;18821;44.800;10.326;2023-08-21T00:51:26;10.60;;;8.43;;
32347;SDS011;18821;44.800;10.326;2023-08-21T00:53:52;12.23;;;7.25;;
32347;SDS011;18821;44.800;10.326;2023-08-21T00:56:18;10.95;;;8.85;;
32347;SDS011;18821;44.800;10.326;2023-08-21T00:58:45;10.57;;;7.47;;
32347;SDS011;18821;44.800;10.326;2023-08-21T01:01:12;10.05;;;8.60;;
32347;SDS011;18821;44.800;10.326;2023-08-21T01:03:39;17.00;;;8.38;;
32347;SDS011;18821;44.800;10.326;2023-08-21T01:06:06;13.75;;;9.00;;
32347;SDS011;18821;44.800;10.326;2023-08-21T01:11:25;12.00;;;8.43;;
32347;SDS011;18821;44.800;10.326;2023-08-21T01:14:01;14.35;;;8.15;;
32347;SDS011;18821;44.800;10.326;2023-08-21T01:16:30;11.60;;;8.38;;
32347;SDS011;18821;44.800;10.326;2023-08-21T01:18:57;13.25;;;8.52;;
32347;SDS011;18821;44.800;10.326;2023-08-21T01:21:28;9.60;;;7.72;;
32347;SDS011;18821;44.800;10.326;2023-08-21T01:23:54;11.48;;;7.65;;
32347;SDS011;18821;44.800;10.326;2023-08-21T01:26:20;11.88;;;8.70;;
32347;SDS011;18821;44.800;10.326;2023-08-21T01:28:47;9.77;;;7.80;;
32347;SDS011;18821;44.800;10.326;2023-08-21T01:31:23;11.10;;;8.77;;
32347;SDS011;18821;44.800;10.326;2023-08-21T01:33:55;9.07;;;7.22;;
32347;SDS011;18821;44.800;10.326;2023-08-21T01:36:25;9.45;;;7.63;;
32347;SDS011;18821;44.800;10.326;2023-08-21T01:38:52;10.25;;;7.22;;
32347;SDS011;18821;44.800;10.326;2023-08-21T01:41:18;11.38;;;7.95;;
32347;SDS011;18821;44.800;10.326;2023-08-21T01:43:44;10.52;;;7.72;;
32347;SDS011;18821;44.800;10.326;2023-08-21T01:46:12;11.07;;;8.10;;
32347;SDS011;18821;44.800;10.326;2023-08-21T01:48:38;13.63;;;7.32;;
32347;SDS011;18821;44.800;10.326;2023-08-21T01:51:04;12.90;;;6.85;;
32347;SDS011;18821;44.800;10.326;2023-08-21T01:53:30;8.43;;;6.93;;
32347;SDS011;18821;44.800;10.326;2023-08-21T01:55:56;15.05;;;7.80;;
32347;SDS011;18821;44.800;10.326;2023-08-21T01:58:22;9.60;;;7.38;;
32347;SDS011;18821;44.800;10.326;2023-08-21T02:00:49;11.70;;;7.15;;
32347;SDS011;18821;44.800;10.326;2023-08-21T02:03:17;12.60;;;7.55;;
32347;SDS011;18821;44.800;10.326;2023-08-21T02:05:43;8.77;;;7.88;;
32347;SDS011;18821;44.800;10.326;2023-08-21T02:08:11;8.95;;;7.30;;
32347;SDS011;18821;44.800;10.326;2023-08-21T02:10:46;11.48;;;8.23;;
32347;SDS011;18821;44.800;10.326;2023-08-21T02:13:15;9.55;;;7.60;;
32347;SDS011;18821;44.800;10.326;2023-08-21T02:15:41;11.60;;;8.50;;
32347;SDS011;18821;44.800;10.326;2023-08-21T02:18:07;9.45;;;7.32;;
32347;SDS011;18821;44.800;10.326;2023-08-21T02:20:34;10.75;;;8.48;;
32347;SDS011;18821;44.800;10.326;2023-08-21T02:23:00;8.43;;;7.57;;
32347;SDS011;18821;44.800;10.326;2023-08-21T02:25:26;12.60;;;8.50;;
32347;SDS011;18821;44.800;10.326;2023-08-21T02:27:53;10.18;;;7.55;;
32347;SDS011;18821;44.800;10.326;2023-08-21T02:30:19;9.93;;;7.78;;
32347;SDS011;18821;44.800;10.326;2023-08-21T02:32:45;12.98;;;7.82;;
32347;SDS011;18821;44.800;10.326;2023-08-21T02:35:12;10.23;;;8.23;;
32347;SDS011;18821;44.800;10.326;2023-08-21T02:37:38;11.43;;;8.35;;
32347;SDS011;18821;44.800;10.326;2023-08-21T02:40:05;9.07;;;7.38;;
32347;SDS011;18821;44.800;10.326;2023-08-21T02:42:35;11.27;;;8.00;;
32347;SDS011;18821;44.800;10.326;2023-08-21T02:45:03;12.05;;;7.45;;
32347;SDS011;18821;44.800;10.326;2023-08-21T02:47:36;8.90;;;6.97;;
32347;SDS011;18821;44.800;10.326;2023-08-21T02:50:05;10.18;;;7.13;;
32347;SDS011;18821;44.800;10.326;2023-08-21T02:52:32;15.07;;;7.82;;
32347;SDS011;18821;44.800;10.326;2023-08-21T02:54:59;10.88;;;7.35;;
32347;SDS011;18821;44.800;10.326;2023-08-21T02:57:25;8.40;;;7.45;;
32347;SDS011;18821;44.800;10.326;2023-08-21T02:59:52;10.18;;;7.78;;
32347;SDS011;18821;44.800;10.326;2023-08-21T03:02:18;10.98;;;8.45;;
32347;SDS011;18821;44.800;10.326;2023-08-21T03:04:45;13.05;;;7.47;;
32347;SDS011;18821;44.800;10.326;2023-08-21T03:07:12;9.35;;;7.85;;
32347;SDS011;18821;44.800;10.326;2023-08-21T03:09:38;9.00;;;7.05;;
32347;SDS011;18821;44.800;10.326;2023-08-21T03:12:06;8.80;;;7.28;;
32347;SDS011;18821;44.800;10.326;2023-08-21T03:14:33;11.10;;;8.50;;
32347;SDS011;18821;44.800;10.326;2023-08-21T03:17:00;9.80;;;7.28;;
32347;SDS011;18821;44.800;10.326;2023-08-21T03:19:27;9.32;;;7.72;;
32347;SDS011;18821;44.800;10.326;2023-08-21T03:21:54;9.48;;;7.55;;
32347;SDS011;18821;44.800;10.326;2023-08-21T03:24:21;8.80;;;7.45;;
32347;SDS011;18821;44.800;10.326;2023-08-21T03:26:50;12.57;;;8.35;;
32347;SDS011;18821;44.800;10.326;2023-08-21T03:29:16;10.20;;;8.13;;
32347;SDS011;18821;44.800;10.326;2023-08-21T03:31:42;9.57;;;7.68;;
32347;SDS011;18821;44.800;10.326;2023-08-21T03:34:08;10.27;;;8.25;;
32347;SDS011;18821;44.800;10.326;2023-08-21T03:36:35;8.80;;;7.57;;
32347;SDS011;18821;44.800;10.326;2023-08-21T03:39:04;11.88;;;8.93;;
32347;SDS011;18821;44.800;10.326;2023-08-21T03:41:38;9.68;;;8.32;;
32347;SDS011;18821;44.800;10.326;2023-08-21T03:44:04;14.15;;;8.13;;
32347;SDS011;18821;44.800;10.326;2023-08-21T03:46:31;13.18;;;8.02;;
32347;SDS011;18821;44.800;10.326;2023-08-21T03:48:57;11.45;;;7.90;;
32347;SDS011;18821;44.800;10.326;2023-08-21T03:51:23;12.65;;;7.80;;
32347;SDS011;18821;44.800;10.326;2023-08-21T03:53:50;9.88;;;7.90;;
32347;SDS011;18821;44.800;10.326;2023-08-21T03:56:16;8.15;;;7.30;;
32347;SDS011;18821;44.800;10.326;2023-08-21T03:58:43;11.45;;;7.55;;
32347;SDS011;18821;44.800;10.326;2023-08-21T04:01:09;14.35;;;7.80;;
32347;SDS011;18821;44.800;10.326;2023-08-21T04:03:36;13.80;;;7.93;;
32347;SDS011;18821;44.800;10.326;2023-08-21T04:06:02;9.65;;;7.90;;
32347;SDS011;18821;44.800;10.326;2023-08-21T04:08:28;9.25;;;7.93;;
32347;SDS011;18821;44.800;10.326;2023-08-21T04:10:55;9.85;;;7.88;;
32347;SDS011;18821;44.800;10.326;2023-08-21T04:13:25;11.10;;;8.10;;
32347;SDS011;18821;44.800;10.326;2023-08-21T04:15:52;9.25;;;8.27;;
32347;SDS011;18821;44.800;10.326;2023-08-21T04:18:21;13.02;;;8.63;;
32347;SDS011;18821;44.800;10.326;2023-08-21T04:20:49;14.45;;;8.02;;
32347;SDS011;18821;44.800;10.326;2023-08-21T04:23:15;9.13;;;7.70;;
32347;SDS011;18821;44.800;10.326;2023-08-21T04:25:41;8.88;;;7.20;;
32347;SDS011;18821;44.800;10.326;2023-08-21T04:28:08;7.97;;;7.18;;
32347;SDS011;18821;44.800;10.326;2023-08-21T04:30:34;13.55;;;7.88;;
32347;SDS011;18821;44.800;10.326;2023-08-21T04:33:00;12.90;;;7.65;;
32347;SDS011;18821;44.800;10.326;2023-08-21T04:35:28;13.18;;;8.10;;
32347;SDS011;18821;44.800;10.326;2023-08-21T04:37:55;12.98;;;8.05;;
32347;SDS011;18821;44.800;10.326;2023-08-21T04:40:23;10.30;;;7.82;;
32347;SDS011;18821;44.800;10.326;2023-08-21T04:42:51;13.00;;;8.10;;
32347;SDS011;18821;44.800;10.326;2023-08-21T04:45:19;11.30;;;8.43;;
32347;SDS011;18821;44.800;10.326;2023-08-21T04:47:45;8.57;;;7.25;;
32347;SDS011;18821;44.800;10.326;2023-08-21T04:50:12;17.20;;;8.25;;
32347;SDS011;18821;44.800;10.326;2023-08-21T04:52:38;9.50;;;7.68;;
32347;SDS011;18821;44.800;10.326;2023-08-21T04:55:05;11.90;;;7.47;;
32347;SDS011;18821;44.800;10.326;2023-08-21T04:57:33;12.27;;;8.13;;
32347;SDS011;18821;44.800;10.326;2023-08-21T05:00:03;11.05;;;8.55;;
32347;SDS011;18821;44.800;10.326;2023-08-21T05:02:34;8.98;;;8.07;;
32347;SDS011;18821;44.800;10.326;2023-08-21T05:05:00;14.82;;;8.85;;
32347;SDS011;18821;44.800;10.326;2023-08-21T05:07:27;11.98;;;8.50;;
32347;SDS011;18821;44.800;10.326;2023-08-21T05:09:53;11.65;;;8.65;;
32347;SDS011;18821;44.800;10.326;2023-08-21T05:12:20;13.63;;;8.02;;
32347;SDS011;18821;44.800;10.326;2023-08-21T05:14:48;15.90;;;8.02;;
32347;SDS011;18821;44.800;10.326;2023-08-21T05:17:14;14.02;;;8.10;;
32347;SDS011;18821;44.800;10.326;2023-08-21T05:19:40;12.55;;;8.70;;
32347;SDS011;18821;44.800;10.326;2023-08-21T05:22:06;9.85;;;7.93;;
32347;SDS011;18821;44.800;10.326;2023-08-21T05:24:32;19.27;;;8.70;;
32347;SDS011;18821;44.800;10.326;2023-08-21T05:27:02;10.90;;;7.97;;
32347;SDS011;18821;44.800;10.326;2023-08-21T05:29:30;12.77;;;7.95;;
32347;SDS011;18821;44.800;10.326;2023-08-21T05:31:56;8.55;;;7.68;;
32347;SDS011;18821;44.800;10.326;2023-08-21T05:34:22;9.48;;;7.93;;
32347;SDS011;18821;44.800;10.326;2023-08-21T05:36:49;10.85;;;8.32;;
32347;SDS011;18821;44.800;10.326;2023-08-21T05:39:15;14.20;;;8.57;;
32347;SDS011;18821;44.800;10.326;2023-08-21T05:41:42;14.95;;;8.88;;
32347;SDS011;18821;44.800;10.326;2023-08-21T05:44:08;10.98;;;9.15;;
32347;SDS011;18821;44.800;10.326;2023-08-21T05:46:34;10.25;;;8.50;;
32347;SDS011;18821;44.800;10.326;2023-08-21T05:49:01;13.02;;;8.15;;
32347;SDS011;18821;44.800;10.326;2023-08-21T05:51:28;10.98;;;8.25;;
32347;SDS011;18821;44.800;10.326;2023-08-21T05:53:54;16.60;;;10.48;;
32347;SDS011;18821;44.800;10.326;2023-08-21T05:56:21;12.02;;;8.00;;
32347;SDS011;18821;44.800;10.326;2023-08-21T05:58:47;12.13;;;8.75;;
32347;SDS011;18821;44.800;10.326;2023-08-21T06:01:14;14.80;;;9.05;;
32347;SDS011;18821;44.800;10.326;2023-08-21T06:03:40;11.75;;;9.07;;
32347;SDS011;18821;44.800;10.326;2023-08-21T06:06:19;16.13;;;8.25;;
32347;SDS011;18821;44.800;10.326;2023-08-21T06:08:46;9.63;;;8.45;;
32347;SDS011;18821;44.800;10.326;2023-08-21T06:11:13;14.18;;;8.13;;
32347;SDS011;18821;44.800;10.326;2023-08-21T06:13:40;12.88;;;7.80;;
32347;SDS011;18821;44.800;10.326;2023-08-21T06:16:06;12.05;;;8.57;;
32347;SDS011;18821;44.800;10.326;2023-08-21T06:18:35;12.68;;;7.45;;
32347;SDS011;18821;44.800;10.326;2023-08-21T06:21:01;13.18;;;7.95;;
32347;SDS011;18821;44.800;10.326;2023-08-21T06:23:28;9.30;;;6.93;;
32347;SDS011;18821;44.800;10.326;2023-08-21T06:25:54;9.63;;;7.22;;
32347;SDS011;18821;44.800;10.326;2023-08-21T06:28:22;9.57;;;7.18;;
32347;SDS011;18821;44.800;10.326;2023-08-21T06:30:48;10.77;;;7.75;;
32347;SDS011;18821;44.800;10.326;2023-08-21T06:33:28;12.73;;;6.82;;
32347;SDS011;18821;44.800;10.326;2023-08-21T06:35:55;11.98;;;7.22;;
32347;SDS011;18821;44.800;10.326;2023-08-21T06:38:21;10.55;;;7.10;;
32347;SDS011;18821;44.800;10.326;2023-08-21T06:40:47;11.73;;;8.50;;
32347;SDS011;18821;44.800;10.326;2023-08-21T06:43:13;12.52;;;7.55;;
32347;SDS011;18821;44.800;10.326;2023-08-21T06:45:44;12.98;;;7.07;;
32347;SDS011;18821;44.800;10.326;2023-08-21T06:48:10;9.85;;;6.40;;
32347;SDS011;18821;44.800;10.326;2023-08-21T06:50:36;9.43;;;8.00;;
32347;SDS011;18821;44.800;10.326;2023-08-21T06:53:03;8.82;;;7.10;;
32347;SDS011;18821;44.800;10.326;2023-08-21T06:55:29;13.35;;;7.88;;
32347;SDS011;18821;44.800;10.326;2023-08-21T06:57:55;9.95;;;7.80;;
32347;SDS011;18821;44.800;10.326;2023-08-21T07:00:21;11.15;;;7.30;;
32347;SDS011;18821;44.800;10.326;2023-08-21T07:02:47;8.98;;;7.30;;
32347;SDS011;18821;44.800;10.326;2023-08-21T07:05:14;10.50;;;8.05;;
32347;SDS011;18821;44.800;10.326;2023-08-21T07:07:40;10.90;;;7.22;;
32347;SDS011;18821;44.800;10.326;2023-08-21T07:10:06;11.70;;;7.88;;
32347;SDS011;18821;44.800;10.326;2023-08-21T07:12:33;10.10;;;7.18;;
32347;SDS011;18821;44.800;10.326;2023-08-21T07:14:59;11.43;;;8.18;;
32347;SDS011;18821;44.800;10.326;2023-08-21T07:17:25;8.93;;;7.70;;
32347;SDS011;18821;44.800;10.326;2023-08-21T07:19:51;12.27;;;7.80;;
32347;SDS011;18821;44.800;10.326;2023-08-21T07:22:18;13.82;;;7.72;;
32347;SDS011;18821;44.800;10.326;2023-08-21T07:24:45;11.93;;;8.30;;
32347;SDS011;18821;44.800;10.326;2023-08-21T07:27:11;10.75;;;7.60;;
32347;SDS011;18821;44.800;10.326;2023-08-21T07:29:37;11.77;;;8.38;;
32347;SDS011;18821;44.800;10.326;2023-08-21T07:32:05;13.50;;;7.70;;
32347;SDS011;18821;44.800;10.326;2023-08-21T07:34:31;13.50;;;6.95;;
32347;SDS011;18821;44.800;10.326;2023-08-21T07:36:57;14.00;;;8.35;;
32347;SDS011;18821;44.800;10.326;2023-08-21T07:39:24;12.77;;;7.22;;
32347;SDS011;18821;44.800;10.326;2023-08-21T07:41:51;9.95;;;8.18;;
32347;SDS011;18821;44.800;10.326;2023-08-21T07:44:18;9.15;;;7.38;;
32347;SDS011;18821;44.800;10.326;2023-08-21T07:46:45;10.45;;;7.75;;
32347;SDS011;18821;44.800;10.326;2023-08-21T07:49:12;18.83;;;8.27;;
32347;SDS011;18821;44.800;10.326;2023-08-21T07:51:37;8.32;;;7.50;;
32347;SDS011;18821;44.800;10.326;2023-08-21T07:54:04;10.43;;;7.22;;
32347;SDS011;18821;44.800;10.326;2023-08-21T07:56:30;16.90;;;7.30;;
32347;SDS011;18821;44.800;10.326;2023-08-21T07:58:55;10.98;;;7.75;;
32347;SDS011;18821;44.800;10.326;2023-08-21T08:01:22;13.15;;;8.45;;
32347;SDS011;18821;44.800;10.326;2023-08-21T08:03:48;11.73;;;7.82;;
32347;SDS011;18821;44.800;10.326;2023-08-21T08:06:14;9.65;;;8.02;;
32347;SDS011;18821;44.800;10.326;2023-08-21T08:08:40;14.88;;;7.20;;
32347;SDS011;18821;44.800;10.326;2023-08-21T08:11:06;8.98;;;7.55;;
32347;SDS011;18821;44.800;10.326;2023-08-21T08:13:33;13.43;;;7.93;;
32347;SDS011;18821;44.800;10.326;2023-08-21T08:15:59;10.15;;;7.80;;
32347;SDS011;18821;44.800;10.326;2023-08-21T08:18:26;11.43;;;7.50;;
32347;SDS011;18821;44.800;10.326;2023-08-21T08:20:52;12.88;;;7.75;;
32347;SDS011;18821;44.800;10.326;2023-08-21T08:23:19;9.55;;;7.47;;
32347;SDS011;18821;44.800;10.326;2023-08-21T08:25:45;11.48;;;7.63;;
32347;SDS011;18821;44.800;10.326;2023-08-21T08:28:11;11.35;;;7.60;;
32347;SDS011;18821;44.800;10.326;2023-08-21T08:30:37;10.05;;;7.45;;
32347;SDS011;18821;44.800;10.326;2023-08-21T08:33:03;9.95;;;7.22;;
32347;SDS011;18821;44.800;10.326;2023-08-21T08:35:30;10.10;;;7.50;;
32347;SDS011;18821;44.800;10.326;2023-08-21T08:37:55;9.27;;;7.95;;
32347;SDS011;18821;44.800;10.326;2023-08-21T08:40:21;12.23;;;8.05;;
32347;SDS011;18821;44.800;10.326;2023-08-21T08:42:47;13.05;;;7.60;;
32347;SDS011;18821;44.800;10.326;2023-08-21T08:45:14;10.80;;;7.53;;
32347;SDS011;18821;44.800;10.326;2023-08-21T08:47:40;11.45;;;7.55;;
32347;SDS011;18821;44.800;10.326;2023-08-21T08:50:07;10.73;;;7.47;;
32347;SDS011;18821;44.800;10.326;2023-08-21T08:52:37;11.02;;;7.00;;
32347;SDS011;18821;44.800;10.326;2023-08-21T08:55:04;11.23;;;7.75;;
32347;SDS011;18821;44.800;10.326;2023-08-21T08:57:33;10.63;;;8.18;;
32347;SDS011;18821;44.800;10.326;2023-08-21T09:00:03;12.75;;;7.85;;
32347;SDS011;18821;44.800;10.326;2023-08-21T09:02:34;10.85;;;7.88;;
32347;SDS011;18821;44.800;10.326;2023-08-21T09:05:00;12.88;;;7.65;;
32347;SDS011;18821;44.800;10.326;2023-08-21T09:07:26;9.82;;;7.93;;
32347;SDS011;18821;44.800;10.326;2023-08-21T09:09:53;11.38;;;8.55;;
32347;SDS011;18821;44.800;10.326;2023-08-21T09:12:19;10.40;;;6.97;;
32347;SDS011;18821;44.800;10.326;2023-08-21T09:14:46;10.05;;;7.43;;
32347;SDS011;18821;44.800;10.326;2023-08-21T09:17:12;10.90;;;7.72;;
32347;SDS011;18821;44.800;10.326;2023-08-21T09:19:39;8.88;;;7.95;;
32347;SDS011;18821;44.800;10.326;2023-08-21T09:22:09;13.13;;;7.80;;
32347;SDS011;18821;44.800;10.326;2023-08-21T09:24:40;11.80;;;6.80;;
32347;SDS011;18821;44.800;10.326;2023-08-21T09:27:25;11.60;;;6.97;;
32347;SDS011;18821;44.800;10.326;2023-08-21T09:29:51;8.10;;;7.30;;
32347;SDS011;18821;44.800;10.326;2023-08-21T09:32:17;9.95;;;7.28;;
32347;SDS011;18821;44.800;10.326;2023-08-21T09:34:44;8.02;;;7.22;;
32347;SDS011;18821;44.800;10.326;2023-08-21T09:37:11;10.32;;;7.20;;
32347;SDS011;18821;44.800;10.326;2023-08-21T09:39:37;9.00;;;7.05;;
32347;SDS011;18821;44.800;10.326;2023-08-21T09:42:06;9.50;;;7.07;;
32347;SDS011;18821;44.800;10.326;2023-08-21T09:44:39;7.53;;;6.60;;
32347;SDS011;18821;44.800;10.326;2023-08-21T09:47:12;15.25;;;6.85;;
32347;SDS011;18821;44.800;10.326;2023-08-21T09:49:39;7.32;;;6.00;;
32347;SDS011;18821;44.800;10.326;2023-08-21T09:52:06;7.72;;;5.63;;
32347;SDS011;18821;44.800;10.326;2023-08-21T09:54:54;8.20;;;6.75;;
32347;SDS011;18821;44.800;10.326;2023-08-21T09:57:21;10.32;;;6.68;;
32347;SDS011;18821;44.800;10.326;2023-08-21T09:59:51;8.00;;;6.78;;
32347;SDS011;18821;44.800;10.326;2023-08-21T10:04:48;10.18;;;7.00;;
32347;SDS011;18821;44.800;10.326;2023-08-21T10:07:15;8.85;;;6.82;;
32347;SDS011;18821;44.800;10.326;2023-08-21T10:09:45;9.55;;;6.13;;
32347;SDS011;18821;44.800;10.326;2023-08-21T10:12:12;8.95;;;7.25;;
32347;SDS011;18821;44.800;10.326;2023-08-21T10:14:40;8.75;;;6.53;;
32347;SDS011;18821;44.800;10.326;2023-08-21T10:17:07;8.98;;;7.00;;
32347;SDS011;18821;44.800;10.326;2023-08-21T10:19:37;10.90;;;7.28;;
32347;SDS011;18821;44.800;10.326;2023-08-21T10:22:02;11.57;;;7.43;;
32347;SDS011;18821;44.800;10.326;2023-08-21T10:24:33;10.57;;;7.07;;
32347;SDS011;18821;44.800;10.326;2023-08-21T10:27:08;8.38;;;7.15;;
32347;SDS011;18821;44.800;10.326;2023-08-21T10:29:38;10.63;;;7.22;;
32347;SDS011;18821;44.800;10.326;2023-08-21T10:32:04;10.95;;;6.70;;
32347;SDS011;18821;44.800;10.326;2023-08-21T10:34:35;11.25;;;6.68;;
32347;SDS011;18821;44.800;10.326;2023-08-21T10:39:30;9.73;;;6.82;;
32347;SDS011;18821;44.800;10.326;2023-08-21T10:49:46;7.68;;;6.78;;
32347;SDS011;18821;44.800;10.326;2023-08-21T10:52:17;8.45;;;7.00;;
32347;SDS011;18821;44.800;10.326;2023-08-21T10:54:48;10.25;;;6.90;;
32347;SDS011;18821;44.800;10.326;2023-08-21T10:57:16;11.50;;;6.93;;
32347;SDS011;18821;44.800;10.326;2023-08-21T10:59:49;8.75;;;6.80;;
32347;SDS011;18821;44.800;10.326;2023-08-21T11:02:23;11.50;;;7.05;;
32347;SDS011;18821;44.800;10.326;2023-08-21T11:04:51;8.90;;;6.00;;
32347;SDS011;18821;44.800;10.326;2023-08-21T11:07:18;10.25;;;7.00;;
32347;SDS011;18821;44.800;10.326;2023-08-21T11:09:44;8.75;;;6.55;;
32347;SDS011;18821;44.800;10.326;2023-08-21T11:12:12;8.40;;;6.93;;
32347;SDS011;18821;44.800;10.326;2023-08-21T11:14:39;7.38;;;6.35;;
32347;SDS011;18821;44.800;10.326;2023-08-21T11:17:06;9.30;;;6.93;;
32347;SDS011;18821;44.800;10.326;2023-08-21T11:19:33;9.93;;;6.40;;
32347;SDS011;18821;44.800;10.326;2023-08-21T11:22:00;7.20;;;6.50;;
32347;SDS011;18821;44.800;10.326;2023-08-21T11:27:03;8.45;;;6.45;;
32347;SDS011;18821;44.800;10.326;2023-08-21T11:29:37;10.18;;;6.15;;
32347;SDS011;18821;44.800;10.326;2023-08-21T11:32:07;10.57;;;7.07;;
32347;SDS011;18821;44.800;10.326;2023-08-21T11:34:48;9.65;;;6.28;;
32347;SDS011;18821;44.800;10.326;2023-08-21T11:37:18;10.45;;;6.75;;
32347;SDS011;18821;44.800;10.326;2023-08-21T11:39:47;11.85;;;6.65;;
32347;SDS011;18821;44.800;10.326;2023-08-21T11:42:15;7.93;;;5.82;;
32347;SDS011;18821;44.800;10.326;2023-08-21T11:44:45;9.00;;;6.60;;
32347;SDS011;18821;44.800;10.326;2023-08-21T11:47:13;14.80;;;7.18;;
32347;SDS011;18821;44.800;10.326;2023-08-21T11:49:40;8.15;;;6.00;;
32347;SDS011;18821;44.800;10.326;2023-08-21T11:52:12;11.30;;;6.63;;
32347;SDS011;18821;44.800;10.326;2023-08-21T11:54:43;10.70;;;6.20;;
32347;SDS011;18821;44.800;10.326;2023-08-21T11:57:16;8.25;;;6.72;;
32347;SDS011;18821;44.800;10.326;2023-08-21T11:59:43;8.27;;;7.40;;
32347;SDS011;18821;44.800;10.326;2023-08-21T12:02:21;7.90;;;7.00;;
32347;SDS011;18821;44.800;10.326;2023-08-21T12:04:55;9.57;;;7.07;;
32347;SDS011;18821;44.800;10.326;2023-08-21T12:07:27;8.45;;;7.22;;
32347;SDS011;18821;44.800;10.326;2023-08-21T12:09:54;7.15;;;6.40;;
32347;SDS011;18821;44.800;10.326;2023-08-21T12:12:22;8.82;;;6.18;;
32347;SDS011;18821;44.800;10.326;2023-08-21T12:14:48;9.88;;;6.47;;
32347;SDS011;18821;44.800;10.326;2023-08-21T12:17:15;8.38;;;6.43;;
32347;SDS011;18821;44.800;10.326;2023-08-21T12:19:41;8.98;;;6.60;;
32347;SDS011;18821;44.800;10.326;2023-08-21T12:22:08;8.32;;;6.40;;
32347;SDS011;18821;44.800;10.326;2023-08-21T12:24:35;7.18;;;6.47;;
32347;SDS011;18821;44.800;10.326;2023-08-21T12:27:05;9.10;;;6.30;;
32347;SDS011;18821;44.800;10.326;2023-08-21T12:29:32;9.68;;;5.80;;
32347;SDS011;18821;44.800;10.326;2023-08-21T12:31:58;10.93;;;6.32;;
32347;SDS011;18821;44.800;10.326;2023-08-21T12:34:24;8.10;;;6.18;;
32347;SDS011;18821;44.800;10.326;2023-08-21T12:36:51;7.00;;;6.25;;
32347;SDS011;18821;44.800;10.326;2023-08-21T12:39:18;7.35;;;5.97;;
32347;SDS011;18821;44.800;10.326;2023-08-21T12:41:44;7.90;;;6.85;;
32347;SDS011;18821;44.800;10.326;2023-08-21T12:44:11;11.82;;;6.32;;
32347;SDS011;18821;44.800;10.326;2023-08-21T12:46:37;9.32;;;5.85;;
32347;SDS011;18821;44.800;10.326;2023-08-21T12:49:04;11.93;;;7.13;;
32347;SDS011;18821;44.800;10.326;2023-08-21T12:51:30;11.00;;;6.28;;
32347;SDS011;18821;44.800;10.326;2023-08-21T12:53:56;8.25;;;6.13;;
32347;SDS011;18821;44.800;10.326;2023-08-21T12:56:22;8.13;;;6.63;;
32347;SDS011;18821;44.800;10.326;2023-08-21T12:58:48;10.95;;;6.22;;
32347;SDS011;18821;44.800;10.326;2023-08-21T13:01:14;7.05;;;5.70;;
32347;SDS011;18821;44.800;10.326;2023-08-21T13:03:44;9.35;;;6.88;;
32347;SDS011;18821;44.800;10.326;2023-08-21T13:06:14;7.43;;;6.72;;
32347;SDS011;18821;44.800;10.326;2023-08-21T13:08:41;9.38;;;6.82;;
32347;SDS011;18821;44.800;10.326;2023-08-21T13:11:07;8.65;;;6.55;;
32347;SDS011;18821;44.800;10.326;2023-08-21T13:13:34;11.70;;;6.65;;
32347;SDS011;18821;44.800;10.326;2023-08-21T13:16:01;8.35;;;6.13;;
32347;SDS011;18821;44.800;10.326;2023-08-21T13:18:31;9.02;;;6.82;;
32347;SDS011;18821;44.800;10.326;2023-08-21T13:20:57;7.32;;;6.05;;
32347;SDS011;18821;44.800;10.326;2023-08-21T13:23:23;7.80;;;6.70;;
32347;SDS011;18821;44.800;10.326;2023-08-21T13:25:50;9.75;;;6.68;;
32347;SDS011;18821;44.800;10.326;2023-08-21T13:28:16;10.13;;;6.25;;
32347;SDS011;18821;44.800;10.326;2023-08-21T13:30:43;7.40;;;6.50;;
32347;SDS011;18821;44.800;10.326;2023-08-21T13:33:09;10.38;;;6.63;;
32347;SDS011;18821;44.800;10.326;2023-08-21T13:35:35;11.60;;;6.78;;
32347;SDS011;18821;44.800;10.326;2023-08-21T13:38:01;7.13;;;6.35;;
32347;SDS011;18821;44.800;10.326;2023-08-21T13:40:29;11.10;;;6.65;;
32347;SDS011;18821;44.800;10.326;2023-08-21T13:42:55;8.43;;;6.93;;
32347;SDS011;18821;44.800;10.326;2023-08-21T13:45:26;9.05;;;7.00;;
32347;SDS011;18821;44.800;10.326;2023-08-21T13:47:52;12.23;;;7.07;;
32347;SDS011;18821;44.800;10.326;2023-08-21T13:50:19;9.70;;;6.82;;
32347;SDS011;18821;44.800;10.326;2023-08-21T13:52:46;7.82;;;6.95;;
32347;SDS011;18821;44.800;10.326;2023-08-21T13:55:15;7.57;;;6.78;;
32347;SDS011;18821;44.800;10.326;2023-08-21T13:57:44;8.00;;;6.35;;
32347;SDS011;18821;44.800;10.326;2023-08-21T14:00:11;8.13;;;6.38;;
32347;SDS011;18821;44.800;10.326;2023-08-21T14:02:38;10.57;;;7.60;;
32347;SDS011;18821;44.800;10.326;2023-08-21T14:05:06;9.07;;;6.45;;
32347;SDS011;18821;44.800;10.326;2023-08-21T14:07:33;12.82;;;6.78;;
32347;SDS011;18821;44.800;10.326;2023-08-21T14:10:00;7.07;;;6.35;;
32347;SDS011;18821;44.800;10.326;2023-08-21T14:12:29;8.50;;;6.55;;
32347;SDS011;18821;44.800;10.326;2023-08-21T14:14:56;9.00;;;6.55;;
32347;SDS011;18821;44.800;10.326;2023-08-21T14:17:23;11.40;;;6.68;;
32347;SDS011;18821;44.800;10.326;2023-08-21T14:19:50;11.85;;;6.63;;
32347;SDS011;18821;44.800;10.326;2023-08-21T14:22:16;11.02;;;6.95;;
32347;SDS011;18821;44.800;10.326;2023-08-21T14:24:42;10.43;;;7.25;;
32347;SDS011;18821;44.800;10.326;2023-08-21T14:27:08;9.10;;;6.60;;
32347;SDS011;18821;44.800;10.326;2023-08-21T14:29:35;7.68;;;6.50;;
32347;SDS011;18821;44.800;10.326;2023-08-21T14:32:01;11.07;;;6.97;;
32347;SDS011;18821;44.800;10.326;2023-08-21T14:34:27;9.98;;;7.53;;
32347;SDS011;18821;44.800;10.326;2023-08-21T14:36:54;9.00;;;7.47;;
32347;SDS011;18821;44.800;10.326;2023-08-21T14:39:22;10.60;;;7.20;;
32347;SDS011;18821;44.800;10.326;2023-08-21T14:41:55;11.85;;;7.68;;
32347;SDS011;18821;44.800;10.326;2023-08-21T14:44:22;8.50;;;6.47;;